createdAt,value
2019-03-20T00:02:14.468Z,19.75
2019-03-20T00:04:49.961Z,20.52
2019-03-20T00:07:18.392Z,23.02
2019-03-20T00:09:48.791Z,24.75
2019-03-20T00:12:19.155Z,27.48
2019-03-20T00:14:49.523Z,26.93
2019-03-20T00:17:19.892Z,25.17
2019-03-20T00:19:51.337Z,19.40
2019-03-20T00:22:21.772Z,39.78
2019-03-20T00:24:52.121Z,18.77
2019-03-20T00:27:22.426Z,28.10
2019-03-20T00:29:52.880Z,22.37
2019-03-20T00:32:23.371Z,21.57
2019-03-20T00:35:00.968Z,18.45
2019-03-20T00:37:25.638Z,21.70
2019-03-20T00:39:56.035Z,44.38
2019-03-20T00:42:26.333Z,22.02
2019-03-20T00:44:56.736Z,20.52
2019-03-20T00:47:27.048Z,19.73
2019-03-20T00:49:58.208Z,18.00
2019-03-20T00:52:28.699Z,25.97
2019-03-20T00:54:58.996Z,19.95
2019-03-20T00:57:29.385Z,17.85
2019-03-20T00:59:59.717Z,17.73
2019-03-20T01:02:30.076Z,19.98
2019-03-20T01:05:12.163Z,16.70
2019-03-20T01:07:34.070Z,17.27
2019-03-20T01:10:05.071Z,17.50
2019-03-20T01:12:35.446Z,38.92
2019-03-20T01:15:06.186Z,25.15
2019-03-20T01:17:36.534Z,20.20
2019-03-20T01:20:07.171Z,19.10
2019-03-20T01:22:37.506Z,20.50
2019-03-20T01:25:08.129Z,16.97
2019-03-20T01:27:38.438Z,24.05
2019-03-20T01:30:11.383Z,15.72
2019-03-20T01:32:41.686Z,19.20
2019-03-20T01:35:23.334Z,19.02
2019-03-20T01:37:44.396Z,21.17
2019-03-20T01:40:14.804Z,19.30
2019-03-20T01:42:45.140Z,19.23
2019-03-20T01:45:15.499Z,18.27
2019-03-20T01:47:45.967Z,19.77
2019-03-20T01:50:16.267Z,19.70
2019-03-20T01:52:46.600Z,29.32
2019-03-20T01:55:17.981Z,23.50
2019-03-20T01:57:48.348Z,23.90
2019-03-20T02:00:18.974Z,18.80
2019-03-20T02:02:49.285Z,23.75
2019-03-20T02:05:20.443Z,18.40
2019-03-20T02:07:50.794Z,26.55
2019-03-20T02:10:21.139Z,23.95
2019-03-20T02:12:51.486Z,19.95
2019-03-20T02:15:21.773Z,18.50
2019-03-20T02:17:52.247Z,21.42
2019-03-20T02:20:22.559Z,20.05
2019-03-20T02:22:52.900Z,18.02
2019-03-20T02:25:23.224Z,20.40
2019-03-20T02:27:53.600Z,18.65
2019-03-20T02:30:23.965Z,17.32
2019-03-20T02:32:54.301Z,22.00
2019-03-20T02:35:24.642Z,28.67
2019-03-20T02:37:54.940Z,28.85
2019-03-20T02:40:25.246Z,24.82
2019-03-20T02:42:55.611Z,20.37
2019-03-20T02:45:25.923Z,20.97
2019-03-20T02:47:56.357Z,36.58
2019-03-20T02:50:26.680Z,21.93
2019-03-20T02:52:58.162Z,19.57
2019-03-20T02:55:28.494Z,24.27
2019-03-20T02:57:58.832Z,23.02
2019-03-20T03:00:29.157Z,19.05
2019-03-20T03:02:59.470Z,17.40
2019-03-20T03:05:29.804Z,20.27
2019-03-20T03:08:00.122Z,20.40
2019-03-20T03:10:30.418Z,16.23
2019-03-20T03:13:02.722Z,21.30
2019-03-20T03:15:32.707Z,24.98
2019-03-20T03:18:03.001Z,20.68
2019-03-20T03:20:33.462Z,21.52
2019-03-20T03:23:03.790Z,22.22
2019-03-20T03:25:34.134Z,17.27
2019-03-20T03:28:04.472Z,42.58
2019-03-20T03:30:34.757Z,28.57
2019-03-20T03:33:05.090Z,21.00
2019-03-20T03:35:35.471Z,29.32
2019-03-20T03:38:05.752Z,19.48
2019-03-20T03:40:36.087Z,24.00
2019-03-20T03:43:06.451Z,19.10
2019-03-20T03:45:36.793Z,29.20
2019-03-20T03:48:07.033Z,16.97
2019-03-20T03:50:37.310Z,29.00
2019-03-20T03:53:07.636Z,21.27
2019-03-20T03:55:37.969Z,18.12
2019-03-20T03:58:08.299Z,18.77
2019-03-20T04:00:39.855Z,19.80
2019-03-20T04:03:10.336Z,19.95
2019-03-20T04:05:41.263Z,13.48
2019-03-20T04:08:11.576Z,19.37
2019-03-20T04:10:41.942Z,13.55
2019-03-20T04:13:12.273Z,18.70
2019-03-20T04:15:42.562Z,22.85
2019-03-20T04:18:13.948Z,20.35
2019-03-20T04:20:44.310Z,19.70
2019-03-20T04:23:14.622Z,18.35
2019-03-20T04:25:44.981Z,19.37
2019-03-20T04:28:15.316Z,27.20
2019-03-20T04:30:45.628Z,30.32
2019-03-20T04:33:15.985Z,19.57
2019-03-20T04:35:47.533Z,18.32
2019-03-20T04:38:17.865Z,19.40
2019-03-20T04:40:48.186Z,46.15
2019-03-20T04:43:18.561Z,22.22
2019-03-20T04:45:48.850Z,20.00
2019-03-20T04:48:19.158Z,20.00
2019-03-20T04:50:49.430Z,29.75
2019-03-20T04:53:19.795Z,18.92
2019-03-20T04:55:50.130Z,16.70
2019-03-20T04:58:20.460Z,28.12
2019-03-20T05:00:51.721Z,21.15
2019-03-20T05:03:22.079Z,26.95
2019-03-20T05:05:52.378Z,41.28
2019-03-20T05:08:22.708Z,21.57
2019-03-20T05:10:53.026Z,16.85
2019-03-20T05:13:23.390Z,22.98
2019-03-20T05:15:53.735Z,19.55
2019-03-20T05:18:24.062Z,28.85
2019-03-20T05:20:54.388Z,20.32
2019-03-20T05:23:24.794Z,23.05
2019-03-20T05:25:55.096Z,19.67
2019-03-20T05:28:25.451Z,23.38
2019-03-20T05:30:56.813Z,23.47
2019-03-20T05:33:27.157Z,17.27
2019-03-20T05:35:57.462Z,20.95
2019-03-20T05:38:27.842Z,26.97
2019-03-20T05:40:58.256Z,39.23
2019-03-20T05:43:28.731Z,21.90
2019-03-20T05:46:00.426Z,26.60
2019-03-20T05:48:30.832Z,24.00
2019-03-20T05:51:01.150Z,16.70
2019-03-20T05:53:31.527Z,17.10
2019-03-20T05:56:01.959Z,20.12
2019-03-20T05:58:32.254Z,19.37
2019-03-20T06:01:02.562Z,28.92
2019-03-20T06:03:32.908Z,21.02
2019-03-20T06:06:03.757Z,17.73
2019-03-20T06:08:34.080Z,18.73
2019-03-20T06:11:04.892Z,21.02
2019-03-20T06:13:35.268Z,16.12
2019-03-20T06:16:05.593Z,18.23
2019-03-20T06:18:36.276Z,15.50
2019-03-20T06:21:06.596Z,21.90
2019-03-20T06:23:36.952Z,20.45
2019-03-20T06:26:07.274Z,21.73
2019-03-20T06:28:37.720Z,15.90
2019-03-20T06:31:09.116Z,15.50
2019-03-20T06:33:39.445Z,19.60
2019-03-20T06:36:09.752Z,20.00
2019-03-20T06:38:40.143Z,15.78
2019-03-20T06:41:10.440Z,14.90
2019-03-20T06:43:41.688Z,12.23
2019-03-20T06:46:12.905Z,18.35
2019-03-20T06:48:43.224Z,18.17
2019-03-20T06:51:14.384Z,25.62
2019-03-20T06:53:44.726Z,18.92
2019-03-20T06:56:15.086Z,14.90
2019-03-20T06:58:45.420Z,20.23
2019-03-20T07:01:26.501Z,18.15
2019-03-20T07:04:24.899Z,13.85
2019-03-20T07:07:11.484Z,14.10
2019-03-20T07:09:55.902Z,17.90
2019-03-20T07:12:34.531Z,14.83
2019-03-20T07:15:04.928Z,19.30
2019-03-20T07:17:35.317Z,17.85
2019-03-20T07:20:06.662Z,17.12
2019-03-20T07:22:37.030Z,15.40
2019-03-20T07:25:07.380Z,16.40
2019-03-20T07:27:37.780Z,11.85
2019-03-20T07:30:09.488Z,14.38
2019-03-20T07:32:39.888Z,34.73
2019-03-20T07:35:10.285Z,15.43
2019-03-20T07:37:40.618Z,12.43
2019-03-20T07:40:10.976Z,12.35
2019-03-20T07:42:41.334Z,12.10
2019-03-20T07:45:11.748Z,10.93
2019-03-20T07:47:42.129Z,14.38
2019-03-20T07:50:12.450Z,10.23
2019-03-20T07:52:42.778Z,11.55
2019-03-20T07:55:14.672Z,12.65
2019-03-20T07:57:45.034Z,9.23
2019-03-20T08:00:15.402Z,11.12
2019-03-20T08:02:45.818Z,9.93
2019-03-20T08:05:16.134Z,15.10
2019-03-20T08:07:46.664Z,10.10
2019-03-20T08:10:17.028Z,8.93
2019-03-20T08:12:47.370Z,7.33
2019-03-20T08:15:17.672Z,6.65
2019-03-20T08:17:48.730Z,6.05
2019-03-20T08:20:19.075Z,7.58
2019-03-20T08:22:49.415Z,7.85
2019-03-20T08:25:19.761Z,17.40
2019-03-20T08:27:50.108Z,5.42
2019-03-20T08:30:20.520Z,7.08
2019-03-20T08:32:50.849Z,11.08
2019-03-20T08:35:21.149Z,6.97
2019-03-20T08:37:51.566Z,12.90
2019-03-20T08:40:21.879Z,6.33
2019-03-20T08:42:52.213Z,7.05
2019-03-20T08:45:22.556Z,8.20
2019-03-20T08:47:52.894Z,15.33
2019-03-20T08:50:23.296Z,9.30
2019-03-20T08:52:53.690Z,9.03
2019-03-20T08:55:24.978Z,11.87
2019-03-20T08:57:55.408Z,10.83
2019-03-20T09:00:25.808Z,10.80
2019-03-20T09:02:56.153Z,11.47
2019-03-20T09:05:26.812Z,21.40
2019-03-20T09:07:57.260Z,8.80
2019-03-20T09:10:27.570Z,10.43
2019-03-20T09:12:57.920Z,12.10
2019-03-20T09:15:28.304Z,9.33
2019-03-20T09:17:58.641Z,14.30
2019-03-20T09:20:29.001Z,9.77
2019-03-20T09:22:59.326Z,10.03
2019-03-20T09:25:29.644Z,14.17
2019-03-20T09:28:02.318Z,9.73
2019-03-20T09:30:32.631Z,10.70
2019-03-20T09:33:02.965Z,15.93
2019-03-20T09:35:33.346Z,10.87
2019-03-20T09:38:04.065Z,12.60
2019-03-20T09:40:34.422Z,8.77
2019-03-20T09:49:10.280Z,11.70
2019-03-20T09:51:40.643Z,17.60
2019-03-20T09:54:10.964Z,13.30
2019-03-20T09:56:41.377Z,16.40
2019-03-20T09:59:11.666Z,7.43
2019-03-20T10:01:41.979Z,6.00
2019-03-20T10:04:12.344Z,6.10
2019-03-20T10:06:42.689Z,6.70
2019-03-20T10:09:14.111Z,8.43
2019-03-20T10:11:44.443Z,6.77
2019-03-20T10:14:14.758Z,8.30
2019-03-20T10:16:45.144Z,6.07
2019-03-20T10:19:17.316Z,6.37
2019-03-20T10:21:47.742Z,7.33
2019-03-20T10:24:18.078Z,12.20
2019-03-20T10:26:48.450Z,6.07
2019-03-20T10:29:18.776Z,7.20
2019-03-20T10:31:50.739Z,6.20
2019-03-20T10:34:21.033Z,7.10
2019-03-20T10:36:51.371Z,7.63
2019-03-20T10:39:23.212Z,5.93
2019-03-20T10:41:53.581Z,8.07
2019-03-20T10:44:25.038Z,5.13
2019-03-20T10:46:55.420Z,8.07
2019-03-20T10:49:26.184Z,6.70
2019-03-20T10:51:56.486Z,18.83
2019-03-20T10:54:26.893Z,5.20
2019-03-20T10:56:57.123Z,5.60
2019-03-20T10:59:27.543Z,6.97
2019-03-20T11:01:57.847Z,5.70
2019-03-20T11:04:28.211Z,4.67
2019-03-20T11:06:58.526Z,4.50
2019-03-20T11:09:29.258Z,4.30
2019-03-20T11:11:59.576Z,4.30
2019-03-20T11:14:31.088Z,5.30
2019-03-20T11:17:01.461Z,5.53
2019-03-20T11:19:31.908Z,4.67
2019-03-20T11:22:02.321Z,5.27
2019-03-20T11:24:32.692Z,8.07
2019-03-20T11:27:03.158Z,6.37
2019-03-20T11:29:33.526Z,4.37
2019-03-20T11:32:03.893Z,4.63
2019-03-20T11:34:34.320Z,5.23
2019-03-20T11:37:04.900Z,6.03
2019-03-20T11:39:36.214Z,11.83
2019-03-20T11:42:06.556Z,4.47
2019-03-20T11:44:37.770Z,4.67
2019-03-20T11:47:08.095Z,4.97
2019-03-20T11:49:38.558Z,3.43
2019-03-20T11:52:09.086Z,4.97
2019-03-20T11:54:39.436Z,3.50
2019-03-20T11:57:09.786Z,11.67
2019-03-20T11:59:40.213Z,8.63
2019-03-20T12:02:10.586Z,4.77
2019-03-20T12:04:41.019Z,6.30
2019-03-20T12:07:12.336Z,7.03
2019-03-20T12:09:43.961Z,17.17
2019-03-20T12:12:14.303Z,7.03
2019-03-20T12:14:45.781Z,7.83
2019-03-20T12:17:16.696Z,13.40
2019-03-20T12:19:47.066Z,6.20
2019-03-20T12:22:18.989Z,6.17
2019-03-20T12:24:49.348Z,10.83
2019-03-20T12:27:19.742Z,5.03
2019-03-20T12:29:50.754Z,7.83
2019-03-20T12:32:21.492Z,6.50
2019-03-20T12:34:51.958Z,8.33
2019-03-20T12:37:22.280Z,6.43
2019-03-20T12:39:53.730Z,7.90
2019-03-20T12:42:25.418Z,8.53
2019-03-20T12:44:55.858Z,18.67
2019-03-20T12:47:26.489Z,7.23
2019-03-20T12:49:56.794Z,5.93
2019-03-20T12:52:27.160Z,8.20
2019-03-20T12:54:57.584Z,6.80
2019-03-20T12:57:27.918Z,8.07
2019-03-20T12:59:58.249Z,8.53
2019-03-20T13:02:28.572Z,9.60
2019-03-20T13:04:59.011Z,7.57
2019-03-20T13:07:29.344Z,6.60
2019-03-20T13:10:03.382Z,7.20
2019-03-20T13:12:32.853Z,6.67
2019-03-20T13:15:03.172Z,6.77
2019-03-20T13:17:33.572Z,6.17
2019-03-20T13:20:03.852Z,7.53
2019-03-20T13:22:34.300Z,11.70
2019-03-20T13:25:06.864Z,6.20
2019-03-20T13:27:37.226Z,5.90
2019-03-20T13:30:19.896Z,6.10
2019-03-20T13:32:43.765Z,7.30
2019-03-20T13:35:14.128Z,8.67
2019-03-20T13:37:44.416Z,6.17
2019-03-20T13:40:15.036Z,6.40
2019-03-20T13:42:46.501Z,7.07
2019-03-20T13:45:17.163Z,7.00
2019-03-20T13:47:47.549Z,6.83
2019-03-20T13:50:17.959Z,6.70
2019-03-20T13:52:48.322Z,7.43
2019-03-20T13:55:18.735Z,8.27
2019-03-20T13:57:49.083Z,7.57
2019-03-20T14:00:20.695Z,5.90
2019-03-20T14:02:51.041Z,9.47
2019-03-20T14:05:21.412Z,10.53
2019-03-20T14:07:51.797Z,7.03
2019-03-20T14:10:25.511Z,6.07
2019-03-20T14:12:55.023Z,8.67
2019-03-20T14:15:28.830Z,7.97
2019-03-20T14:17:59.168Z,6.13
2019-03-20T14:20:29.504Z,5.43
2019-03-20T14:22:59.844Z,5.40
2019-03-20T14:25:30.145Z,7.20
2019-03-20T14:28:00.452Z,4.97
2019-03-20T14:30:30.776Z,9.53
2019-03-20T14:33:02.216Z,6.17
2019-03-20T14:35:32.527Z,6.53
2019-03-20T14:38:02.978Z,5.17
2019-03-20T14:40:36.785Z,16.33
2019-03-20T14:43:06.163Z,6.33
2019-03-20T14:45:36.718Z,6.70
2019-03-20T14:48:07.154Z,17.97
2019-03-20T14:50:37.496Z,7.80
2019-03-20T14:53:07.884Z,8.53
2019-03-20T14:55:39.271Z,4.80
2019-03-20T14:58:09.656Z,6.33
2019-03-20T15:00:41.436Z,7.90
2019-03-20T15:03:14.376Z,8.47
2019-03-20T15:05:44.776Z,6.17
2019-03-20T15:08:15.106Z,8.80
2019-03-20T15:10:46.910Z,6.10
2019-03-20T15:13:23.870Z,6.20
2019-03-20T15:15:57.384Z,14.10
2019-03-20T15:18:28.828Z,6.83
2019-03-20T15:21:00.600Z,7.20
2019-03-20T15:23:32.618Z,7.10
2019-03-20T15:26:04.389Z,7.20
2019-03-20T15:28:34.959Z,7.83
2019-03-20T15:31:06.465Z,10.03
2019-03-20T15:33:38.017Z,16.63
2019-03-20T15:36:11.410Z,6.47
2019-03-20T15:38:42.204Z,7.33
2019-03-20T15:41:14.042Z,6.37
2019-03-20T15:43:47.398Z,8.57
2019-03-20T15:46:26.597Z,10.23
2019-03-20T15:48:56.984Z,10.03
2019-03-20T15:51:27.328Z,6.70
2019-03-20T15:53:57.677Z,10.50
2019-03-20T15:56:32.140Z,14.93
2019-03-20T15:59:02.585Z,6.90
2019-03-20T16:01:32.911Z,8.87
2019-03-20T16:04:03.759Z,7.77
2019-03-20T16:06:34.136Z,16.57
2019-03-20T16:09:06.182Z,9.97
2019-03-20T16:11:36.513Z,12.80
2019-03-20T16:14:07.403Z,7.23
2019-03-20T16:16:37.741Z,8.30
2019-03-20T16:19:08.022Z,11.08
2019-03-20T16:21:38.341Z,9.85
2019-03-20T16:24:08.670Z,8.70
2019-03-20T16:26:38.967Z,10.32
2019-03-20T16:29:09.308Z,14.63
2019-03-20T16:31:39.618Z,8.30
2019-03-20T16:34:09.964Z,10.78
2019-03-20T16:36:40.256Z,9.35
2019-03-20T16:39:10.635Z,8.13
2019-03-20T16:41:40.881Z,11.65
2019-03-20T16:44:11.558Z,9.28
2019-03-20T16:46:41.864Z,10.28
2019-03-20T16:49:12.256Z,11.15
2019-03-20T16:51:42.602Z,11.18
2019-03-20T16:54:12.934Z,11.55
2019-03-20T16:56:43.284Z,12.93
2019-03-20T16:59:13.986Z,12.07
2019-03-20T17:01:44.341Z,9.88
2019-03-20T17:04:15.444Z,10.38
2019-03-20T17:06:48.827Z,9.75
2019-03-20T17:09:19.122Z,20.97
2019-03-20T17:11:49.560Z,13.68
2019-03-20T17:14:22.361Z,13.78
2019-03-20T17:16:52.693Z,12.90
2019-03-20T17:19:23.012Z,14.23
2019-03-20T17:21:53.284Z,12.30
2019-03-20T17:24:24.682Z,26.37
2019-03-20T17:26:55.030Z,11.40
2019-03-20T17:29:25.410Z,12.25
2019-03-20T17:31:55.770Z,11.53
2019-03-20T17:34:26.114Z,12.85
2019-03-20T17:36:57.530Z,13.43
2019-03-20T17:39:28.098Z,14.18
2019-03-20T17:41:58.429Z,13.13
2019-03-20T17:44:32.116Z,14.20
2019-03-20T17:47:02.899Z,12.55
2019-03-20T17:49:36.012Z,15.58
2019-03-20T17:52:11.155Z,14.33
2019-03-20T17:54:42.837Z,11.08
2019-03-20T17:57:14.296Z,10.40
2019-03-20T17:59:45.375Z,12.85
2019-03-20T18:02:24.198Z,11.35
2019-03-20T18:04:56.770Z,12.65
2019-03-20T18:07:30.540Z,14.00
2019-03-20T18:10:02.067Z,11.85
2019-03-20T18:12:36.477Z,14.55
2019-03-20T18:15:08.020Z,13.05
2019-03-20T18:17:47.158Z,8.75
2019-03-20T18:20:25.532Z,12.80
2019-03-20T18:22:55.887Z,15.15
2019-03-20T18:25:30.296Z,15.85
2019-03-20T18:28:00.636Z,13.32
2019-03-20T18:30:31.807Z,16.80
2019-03-20T18:33:02.215Z,13.80
2019-03-20T18:35:32.552Z,25.68
2019-03-20T18:38:02.879Z,14.55
2019-03-20T18:40:33.249Z,16.57
2019-03-20T18:43:03.885Z,17.10
2019-03-20T18:45:34.273Z,18.52
2019-03-20T18:48:04.864Z,19.82
2019-03-20T18:50:35.185Z,14.00
2019-03-20T18:53:05.601Z,17.55
2019-03-20T18:55:36.018Z,16.73
2019-03-20T18:58:06.401Z,20.88
2019-03-20T19:00:36.837Z,17.82
2019-03-20T19:03:07.513Z,19.62
2019-03-20T19:05:41.091Z,18.10
2019-03-20T19:08:12.389Z,17.87
2019-03-20T19:10:42.848Z,17.35
2019-03-20T19:13:13.283Z,19.73
2019-03-20T19:15:43.664Z,15.60
2019-03-20T19:18:13.993Z,29.90
2019-03-20T19:20:44.327Z,17.32
2019-03-20T19:23:14.636Z,16.40
2019-03-20T19:25:45.004Z,21.55
2019-03-20T19:28:15.319Z,20.40
2019-03-20T19:30:45.639Z,15.83
2019-03-20T19:33:15.930Z,18.67
2019-03-20T19:35:46.268Z,25.00
2019-03-20T19:38:17.342Z,13.65
2019-03-20T19:40:48.890Z,12.80
2019-03-20T19:43:19.257Z,13.75
2019-03-20T19:45:50.584Z,11.12
2019-03-20T19:48:20.901Z,12.88
2019-03-20T19:50:51.356Z,15.38
2019-03-20T19:53:29.808Z,13.43
2019-03-20T19:56:01.704Z,15.48
2019-03-20T19:58:32.088Z,17.00
2019-03-20T20:01:02.393Z,17.55
2019-03-20T20:03:32.786Z,11.20
2019-03-20T20:06:03.114Z,16.05
2019-03-20T20:08:33.534Z,17.37
2019-03-20T20:11:03.919Z,15.55
2019-03-20T20:13:34.247Z,23.42
2019-03-20T20:16:04.695Z,12.93
2019-03-20T20:18:35.100Z,15.55
2019-03-20T20:21:05.564Z,15.48
2019-03-20T20:23:35.885Z,13.72
2019-03-20T20:26:06.338Z,15.28
2019-03-20T20:28:36.638Z,19.82
2019-03-20T20:31:07.002Z,17.92
2019-03-20T20:33:38.285Z,16.35
2019-03-20T20:36:08.690Z,17.87
2019-03-20T20:38:38.980Z,12.43
2019-03-20T20:41:09.328Z,17.17
2019-03-20T20:43:39.953Z,27.10
2019-03-20T20:46:10.476Z,18.12
2019-03-20T20:48:40.909Z,16.40
2019-03-20T20:51:11.412Z,16.27
2019-03-20T20:53:42.124Z,15.35
2019-03-20T20:56:12.501Z,15.70
2019-03-20T20:58:42.833Z,15.78
2019-03-20T21:01:13.226Z,13.62
2019-03-20T21:03:43.588Z,15.45
2019-03-20T21:06:14.637Z,20.75
2019-03-20T21:08:44.964Z,12.35
2019-03-20T21:11:15.268Z,24.80
2019-03-20T21:13:45.666Z,17.77
2019-03-20T21:16:16.524Z,15.13
2019-03-20T21:19:25.349Z,15.63
2019-03-20T21:22:43.901Z,14.85
2019-03-20T21:25:22.167Z,10.90
2019-03-20T21:28:31.321Z,14.30
2019-03-20T21:31:20.954Z,14.50
2019-03-20T21:34:34.318Z,17.62
2019-03-20T21:37:53.979Z,15.15
2019-03-20T21:40:27.108Z,13.70
2019-03-20T21:43:33.444Z,15.13
2019-03-20T21:46:59.992Z,15.23
2019-03-20T21:49:31.847Z,17.00
2019-03-20T21:52:02.744Z,12.93
2019-03-20T21:54:53.024Z,19.87
2019-03-20T21:57:51.809Z,11.10
2019-03-20T22:00:56.808Z,15.45
2019-03-20T22:03:27.736Z,15.40
2019-03-20T22:06:34.730Z,13.32
2019-03-20T22:09:24.443Z,14.95
2019-03-20T22:12:30.428Z,12.93
2019-03-20T22:15:18.110Z,14.30
2019-03-20T22:18:25.248Z,21.35
2019-03-20T22:21:03.830Z,15.93
2019-03-20T22:23:59.080Z,13.93
2019-03-20T22:27:16.438Z,14.60
2019-03-20T22:29:47.326Z,12.33
2019-03-20T22:33:16.724Z,13.38
2019-03-20T22:36:12.032Z,20.10
2019-03-20T22:39:24.245Z,11.85
2019-03-20T22:42:34.268Z,12.75
2019-03-20T22:46:03.854Z,11.75
2019-03-20T22:49:09.998Z,25.50
2019-03-20T22:52:07.643Z,13.43
2019-03-20T22:55:03.968Z,17.00
2019-03-20T22:58:03.800Z,11.28
2019-03-20T23:00:34.924Z,32.33
2019-03-20T23:03:11.974Z,13.58
2019-03-20T23:05:42.922Z,11.63
2019-03-20T23:08:17.004Z,11.73
2019-03-20T23:10:50.533Z,14.93
2019-03-20T23:13:21.456Z,16.60
2019-03-20T23:15:52.467Z,14.63
2019-03-20T23:18:23.340Z,20.68
2019-03-20T23:20:54.618Z,11.90
2019-03-20T23:23:25.579Z,17.27
2019-03-20T23:25:56.444Z,13.20
2019-03-20T23:28:27.308Z,14.73
2019-03-20T23:30:58.197Z,11.95
2019-03-20T23:33:29.070Z,12.60
2019-03-20T23:35:59.966Z,13.10
2019-03-20T23:38:30.894Z,11.83
2019-03-20T23:41:01.843Z,9.60
2019-03-20T23:43:32.764Z,12.07
2019-03-20T23:46:03.777Z,11.20
2019-03-20T23:48:50.406Z,12.23
2019-03-20T23:51:22.525Z,11.40
2019-03-20T23:53:54.882Z,11.85
2019-03-20T23:56:27.384Z,11.40
2019-03-20T23:58:58.286Z,9.40
